GCFV/FUE METAR and TAF weather

Enter ICAO airport designator
Station Type Date Time Source
GCFV METAR 2021/09/28 17:00 UTC NOAA

GCFV 281700Z 05020KT 9999 FEW025 25/19 Q1020


Station Type Date Time Source
GCFV Decoded METAR 2021/09/28 17:00 UTC NOAA

Fuerteventura / Aeropuerto, Spain (GCFV) 28-27N 013-52W 30M
Sep 28, 2021 - 01:00 PM EDT / 2021.09.28 1700 UTC
Wind: from the NE (050 degrees) at 23 MPH (20 KT):0
Visibility: greater than 7 mile(s):0
Sky conditions: mostly clear
Temperature: 77 F (25 C)
Dew Point: 66 F (19 C)
Relative Humidity: 69%
Pressure (altimeter): 30.12 in. Hg (1020 hPa)
ob: GCFV 281700Z 05020KT 9999 FEW025 25/19 Q1020
cycle: 17

Station Type Date Time Source
GCFV TAF 2021/09/28 15:27 UTC NOAA

TAF TAF GCFV 281400Z 2815/2915 04019KT 9999 FEW020 TX26/2914Z TN22/2906Z

Example: see airport list